sensor_id;sensor_type;location;lat;lon;timestamp;pressure;altitude;pressure_sealevel;temperature;humidity
5053;BME280;2545;50.892;5.740;2023-04-05T00:00:09;56092.47;;;-142.21;76.79
5053;BME280;2545;50.892;5.740;2023-04-05T00:02:35;56125.81;;;-142.21;77.49
5053;BME280;2545;50.892;5.740;2023-04-05T00:05:02;56133.66;;;-142.21;77.62
5053;BME280;2545;50.892;5.740;2023-04-05T00:07:27;56098.38;;;-142.21;77.81
5053;BME280;2545;50.892;5.740;2023-04-05T00:09:53;56123.84;;;-142.21;77.89
5053;BME280;2545;50.892;5.740;2023-04-05T00:12:19;56127.78;;;-142.21;78.28
5053;BME280;2545;50.892;5.740;2023-04-05T00:14:45;56123.84;;;-142.21;78.53
5053;BME280;2545;50.892;5.740;2023-04-05T00:17:10;56143.47;;;-142.21;79.25
5053;BME280;2545;50.892;5.740;2023-04-05T00:19:35;56143.47;;;-142.21;79.29
5053;BME280;2545;50.892;5.740;2023-04-05T00:22:02;56084.63;;;-142.21;79.62
5053;BME280;2545;50.892;5.740;2023-04-05T00:24:28;56114.06;;;-142.21;80.36
5053;BME280;2545;50.892;5.740;2023-04-05T00:26:55;56168.97;;;-142.21;80.35
5053;BME280;2545;50.892;5.740;2023-04-05T00:29:21;56080.72;;;-142.21;80.89
5053;BME280;2545;50.892;5.740;2023-04-05T00:31:46;56114.06;;;-142.21;80.59
5053;BME280;2545;50.892;5.740;2023-04-05T00:34:11;56141.50;;;-142.21;81.50
5053;BME280;2545;50.892;5.740;2023-04-05T00:36:37;56096.41;;;-142.21;81.74
5053;BME280;2545;50.892;5.740;2023-04-05T00:39:02;56137.59;;;-142.21;81.70
5053;BME280;2545;50.892;5.740;2023-04-05T00:41:28;56121.91;;;-142.21;81.63
5053;BME280;2545;50.892;5.740;2023-04-05T00:43:53;56104.25;;;-142.21;82.08
5053;BME280;2545;50.892;5.740;2023-04-05T00:46:19;56125.81;;;-142.21;82.22
5053;BME280;2545;50.892;5.740;2023-04-05T00:48:44;56121.91;;;-142.21;82.72
5053;BME280;2545;50.892;5.740;2023-04-05T00:51:10;56127.78;;;-142.21;82.96
5053;BME280;2545;50.892;5.740;2023-04-05T00:53:36;56131.69;;;-142.21;83.39
5053;BME280;2545;50.892;5.740;2023-04-05T00:56:02;56188.56;;;-142.21;83.73
5053;BME280;2545;50.892;5.740;2023-04-05T00:58:28;56106.22;;;-142.21;83.97
5053;BME280;2545;50.892;5.740;2023-04-05T01:03:21;56143.47;;;-142.21;85.30
5053;BME280;2545;50.892;5.740;2023-04-05T01:05:54;56112.09;;;-142.21;85.76
5053;BME280;2545;50.892;5.740;2023-04-05T01:08:33;56137.59;;;-142.21;86.17
5053;BME280;2545;50.892;5.740;2023-04-05T01:11:03;56172.88;;;-142.21;86.69
5053;BME280;2545;50.892;5.740;2023-04-05T01:13:30;56110.13;;;-142.21;86.84
5053;BME280;2545;50.892;5.740;2023-04-05T01:15:56;56155.22;;;-142.21;86.62
5053;BME280;2545;50.892;5.740;2023-04-05T01:18:21;56141.50;;;-142.21;86.64
5053;BME280;2545;50.892;5.740;2023-04-05T01:20:58;56143.47;;;-142.21;86.15
5053;BME280;2545;50.892;5.740;2023-04-05T01:23:52;56094.44;;;-142.21;86.04
5053;BME280;2545;50.892;5.740;2023-04-05T01:31:49;56155.22;;;-142.21;87.25
5053;BME280;2545;50.892;5.740;2023-04-05T01:36:48;56125.81;;;-142.21;87.60
5053;BME280;2545;50.892;5.740;2023-04-05T01:39:16;56139.53;;;-142.21;87.37
5053;BME280;2545;50.892;5.740;2023-04-05T01:41:43;56151.31;;;-142.21;87.60
5053;BME280;2545;50.892;5.740;2023-04-05T01:44:08;56151.31;;;-142.21;88.51
5053;BME280;2545;50.892;5.740;2023-04-05T01:46:33;56178.75;;;-142.21;88.88
5053;BME280;2545;50.892;5.740;2023-04-05T01:48:59;56123.84;;;-142.21;89.41
5053;BME280;2545;50.892;5.740;2023-04-05T01:51:24;56112.09;;;-142.21;89.64
5053;BME280;2545;50.892;5.740;2023-04-05T01:53:49;56157.19;;;-142.21;90.32
5053;BME280;2545;50.892;5.740;2023-04-05T01:56:15;56163.06;;;-142.21;90.72
5053;BME280;2545;50.892;5.740;2023-04-05T01:58:40;56127.78;;;-142.21;91.00
5053;BME280;2545;50.892;5.740;2023-04-05T02:01:06;56121.91;;;-142.21;91.31
5053;BME280;2545;50.892;5.740;2023-04-05T02:03:31;56141.50;;;-142.21;91.28
5053;BME280;2545;50.892;5.740;2023-04-05T02:05:56;56121.91;;;-142.21;92.14
5053;BME280;2545;50.892;5.740;2023-04-05T02:08:22;56125.81;;;-142.21;92.93
5053;BME280;2545;50.892;5.740;2023-04-05T02:10:47;56145.44;;;-142.21;93.43
5053;BME280;2545;50.892;5.740;2023-04-05T02:13:13;56131.69;;;-142.21;93.18
5053;BME280;2545;50.892;5.740;2023-04-05T02:15:38;56108.16;;;-142.21;93.41
5053;BME280;2545;50.892;5.740;2023-04-05T02:18:04;56123.84;;;-142.21;92.60
5053;BME280;2545;50.892;5.740;2023-04-05T02:20:29;56167.00;;;-142.21;92.43
5053;BME280;2545;50.892;5.740;2023-04-05T02:22:55;56141.50;;;-142.21;92.38
5053;BME280;2545;50.892;5.740;2023-04-05T02:25:20;56123.84;;;-142.21;92.14
5053;BME280;2545;50.892;5.740;2023-04-05T02:27:46;56172.88;;;-142.21;92.22
5053;BME280;2545;50.892;5.740;2023-04-05T02:30:13;56123.84;;;-142.21;92.34
5053;BME280;2545;50.892;5.740;2023-04-05T02:32:41;56108.16;;;-142.21;91.47
5053;BME280;2545;50.892;5.740;2023-04-05T02:35:08;56084.63;;;-142.21;91.70
5053;BME280;2545;50.892;5.740;2023-04-05T02:37:34;56141.50;;;-142.21;91.90
5053;BME280;2545;50.892;5.740;2023-04-05T02:40:00;56151.31;;;-142.21;92.27
5053;BME280;2545;50.892;5.740;2023-04-05T02:42:25;56096.41;;;-142.21;92.80
5053;BME280;2545;50.892;5.740;2023-04-05T02:44:51;56127.78;;;-142.21;93.48
5053;BME280;2545;50.892;5.740;2023-04-05T02:47:17;56127.78;;;-142.21;94.14
5053;BME280;2545;50.892;5.740;2023-04-05T02:49:46;56133.66;;;-142.21;94.27
5053;BME280;2545;50.892;5.740;2023-04-05T02:52:12;56147.38;;;-142.21;94.27
5053;BME280;2545;50.892;5.740;2023-04-05T02:54:37;56145.44;;;-142.21;94.63
5053;BME280;2545;50.892;5.740;2023-04-05T02:57:02;56110.13;;;-142.21;95.10
5053;BME280;2545;50.892;5.740;2023-04-05T02:59:28;56117.97;;;-142.21;95.35
5053;BME280;2545;50.892;5.740;2023-04-05T03:01:53;56121.91;;;-142.21;95.65
5053;BME280;2545;50.892;5.740;2023-04-05T03:04:18;56135.63;;;-142.21;95.52
5053;BME280;2545;50.892;5.740;2023-04-05T03:06:44;56114.06;;;-142.21;96.29
5053;BME280;2545;50.892;5.740;2023-04-05T03:09:13;56131.69;;;-142.21;96.77
5053;BME280;2545;50.892;5.740;2023-04-05T03:11:38;56090.53;;;-142.21;96.77
5053;BME280;2545;50.892;5.740;2023-04-05T03:14:04;56117.97;;;-142.21;97.37
5053;BME280;2545;50.892;5.740;2023-04-05T03:16:29;56104.25;;;-142.21;97.80
5053;BME280;2545;50.892;5.740;2023-04-05T03:18:55;56157.19;;;-142.21;97.64
5053;BME280;2545;50.892;5.740;2023-04-05T03:21:21;56172.88;;;-142.21;97.88
5053;BME280;2545;50.892;5.740;2023-04-05T03:23:46;56116.00;;;-142.21;98.21
5053;BME280;2545;50.892;5.740;2023-04-05T03:26:12;56090.53;;;-142.21;98.37
5053;BME280;2545;50.892;5.740;2023-04-05T03:28:38;56139.53;;;-142.21;98.43
5053;BME280;2545;50.892;5.740;2023-04-05T03:31:09;56116.00;;;-142.21;98.67
5053;BME280;2545;50.892;5.740;2023-04-05T03:33:35;56106.22;;;-142.21;98.79
5053;BME280;2545;50.892;5.740;2023-04-05T03:36:00;56145.44;;;-142.21;99.48
5053;BME280;2545;50.892;5.740;2023-04-05T03:38:26;56141.50;;;-142.21;100.00
5053;BME280;2545;50.892;5.740;2023-04-05T03:40:52;56147.38;;;-142.21;100.00
5053;BME280;2545;50.892;5.740;2023-04-05T03:43:17;56110.13;;;-142.21;100.00
5053;BME280;2545;50.892;5.740;2023-04-05T03:45:43;56114.06;;;-142.21;100.00
5053;BME280;2545;50.892;5.740;2023-04-05T03:48:08;56129.75;;;-142.21;100.00
5053;BME280;2545;50.892;5.740;2023-04-05T03:50:34;56110.13;;;-142.21;100.00
5053;BME280;2545;50.892;5.740;2023-04-05T03:52:59;56151.31;;;-142.21;100.00
5053;BME280;2545;50.892;5.740;2023-04-05T03:55:24;56106.22;;;-142.21;100.00
5053;BME280;2545;50.892;5.740;2023-04-05T03:57:51;56168.97;;;-142.21;100.00
5053;BME280;2545;50.892;5.740;2023-04-05T04:00:16;56153.28;;;-142.21;100.00
5053;BME280;2545;50.892;5.740;2023-04-05T04:02:46;56100.31;;;-142.21;100.00
5053;BME280;2545;50.892;5.740;2023-04-05T04:05:13;56094.44;;;-142.21;100.00
5053;BME280;2545;50.892;5.740;2023-04-05T04:07:40;56151.31;;;-142.21;100.00
5053;BME280;2545;50.892;5.740;2023-04-05T04:10:07;56149.34;;;-142.21;100.00
5053;BME280;2545;50.892;5.740;2023-04-05T04:12:33;56088.56;;;-142.21;100.00
5053;BME280;2545;50.892;5.740;2023-04-05T04:14:58;56133.66;;;-142.21;100.00
5053;BME280;2545;50.892;5.740;2023-04-05T04:17:28;56153.28;;;-142.21;100.00
5053;BME280;2545;50.892;5.740;2023-04-05T04:19:55;56117.97;;;-142.21;100.00
5053;BME280;2545;50.892;5.740;2023-04-05T04:22:20;56127.78;;;-142.21;100.00
5053;BME280;2545;50.892;5.740;2023-04-05T04:24:46;56108.16;;;-142.21;100.00
5053;BME280;2545;50.892;5.740;2023-04-05T04:27:15;56125.81;;;-142.21;100.00
5053;BME280;2545;50.892;5.740;2023-04-05T04:29:41;56167.00;;;-142.21;100.00
5053;BME280;2545;50.892;5.740;2023-04-05T04:32:19;56137.59;;;-142.21;100.00
5053;BME280;2545;50.892;5.740;2023-04-05T04:34:50;56106.22;;;-142.21;100.00
5053;BME280;2545;50.892;5.740;2023-04-05T04:37:18;56116.00;;;-142.21;100.00
5053;BME280;2545;50.892;5.740;2023-04-05T04:39:47;56129.75;;;-142.21;100.00
5053;BME280;2545;50.892;5.740;2023-04-05T04:42:14;56135.63;;;-142.21;100.00
5053;BME280;2545;50.892;5.740;2023-04-05T04:44:44;56121.91;;;-142.21;100.00
5053;BME280;2545;50.892;5.740;2023-04-05T04:47:10;56170.91;;;-142.21;100.00
5053;BME280;2545;50.892;5.740;2023-04-05T04:49:37;56100.31;;;-142.21;100.00
5053;BME280;2545;50.892;5.740;2023-04-05T04:52:02;56123.84;;;-142.21;100.00
5053;BME280;2545;50.892;5.740;2023-04-05T04:54:27;56112.09;;;-142.21;100.00
5053;BME280;2545;50.892;5.740;2023-04-05T04:56:53;56102.28;;;-142.21;100.00
5053;BME280;2545;50.892;5.740;2023-04-05T04:59:18;56170.91;;;-142.21;100.00
5053;BME280;2545;50.892;5.740;2023-04-05T05:01:44;56123.84;;;-142.21;100.00
5053;BME280;2545;50.892;5.740;2023-04-05T05:04:09;56116.00;;;-142.21;100.00
5053;BME280;2545;50.892;5.740;2023-04-05T05:06:35;56131.69;;;-142.21;100.00
5053;BME280;2545;50.892;5.740;2023-04-05T05:09:00;56125.81;;;-142.21;100.00
5053;BME280;2545;50.892;5.740;2023-04-05T05:11:26;56084.63;;;-142.21;100.00
5053;BME280;2545;50.892;5.740;2023-04-05T05:13:52;56147.38;;;-142.21;100.00
5053;BME280;2545;50.892;5.740;2023-04-05T05:16:18;56141.50;;;-142.21;100.00
5053;BME280;2545;50.892;5.740;2023-04-05T05:18:45;56125.81;;;-142.21;100.00
5053;BME280;2545;50.892;5.740;2023-04-05T05:21:12;56129.75;;;-142.21;100.00
5053;BME280;2545;50.892;5.740;2023-04-05T05:23:38;56127.78;;;-142.21;100.00
5053;BME280;2545;50.892;5.740;2023-04-05T05:26:03;56100.31;;;-142.21;100.00
5053;BME280;2545;50.892;5.740;2023-04-05T05:28:28;56119.94;;;-142.21;100.00
5053;BME280;2545;50.892;5.740;2023-04-05T05:30:54;56114.06;;;-142.21;100.00
5053;BME280;2545;50.892;5.740;2023-04-05T05:33:20;56131.69;;;-142.21;100.00
5053;BME280;2545;50.892;5.740;2023-04-05T05:35:48;56153.28;;;-142.21;100.00
5053;BME280;2545;50.892;5.740;2023-04-05T05:38:16;56123.84;;;-142.21;100.00
5053;BME280;2545;50.892;5.740;2023-04-05T05:40:41;56119.94;;;-142.21;100.00
5053;BME280;2545;50.892;5.740;2023-04-05T05:43:06;56098.38;;;-142.21;100.00
5053;BME280;2545;50.892;5.740;2023-04-05T05:45:33;56151.31;;;-142.21;100.00
5053;BME280;2545;50.892;5.740;2023-04-05T05:47:58;56123.84;;;-142.21;100.00
5053;BME280;2545;50.892;5.740;2023-04-05T05:50:23;56151.31;;;-142.21;100.00
5053;BME280;2545;50.892;5.740;2023-04-05T05:52:49;56119.94;;;-142.21;100.00
5053;BME280;2545;50.892;5.740;2023-04-05T05:55:14;56112.09;;;-142.21;100.00
5053;BME280;2545;50.892;5.740;2023-04-05T05:57:40;56147.38;;;-142.21;100.00
5053;BME280;2545;50.892;5.740;2023-04-05T06:00:06;56116.00;;;-142.21;100.00
5053;BME280;2545;50.892;5.740;2023-04-05T06:02:33;56137.59;;;-142.21;100.00
5053;BME280;2545;50.892;5.740;2023-04-05T06:04:59;56165.03;;;-142.21;99.98
5053;BME280;2545;50.892;5.740;2023-04-05T06:07:26;56086.59;;;-142.21;98.95
5053;BME280;2545;50.892;5.740;2023-04-05T06:09:51;56163.06;;;-142.21;97.36
5053;BME280;2545;50.892;5.740;2023-04-05T06:12:16;56129.75;;;-142.21;95.31
5053;BME280;2545;50.892;5.740;2023-04-05T06:14:42;56088.56;;;-142.21;94.05
5053;BME280;2545;50.892;5.740;2023-04-05T06:17:07;56116.00;;;-142.21;93.18
5053;BME280;2545;50.892;5.740;2023-04-05T06:19:32;56127.78;;;-142.21;92.97
5053;BME280;2545;50.892;5.740;2023-04-05T06:21:58;56125.81;;;-142.21;92.31
5053;BME280;2545;50.892;5.740;2023-04-05T06:24:25;56178.75;;;-142.21;91.31
5053;BME280;2545;50.892;5.740;2023-04-05T06:26:50;56137.59;;;-142.21;90.37
5053;BME280;2545;50.892;5.740;2023-04-05T06:29:16;56155.22;;;-142.21;89.68
5053;BME280;2545;50.892;5.740;2023-04-05T06:31:41;56157.19;;;-142.21;89.14
5053;BME280;2545;50.892;5.740;2023-04-05T06:34:07;56127.78;;;-142.21;87.77
5053;BME280;2545;50.892;5.740;2023-04-05T06:36:33;56141.50;;;-142.21;86.58
5053;BME280;2545;50.892;5.740;2023-04-05T06:38:58;56114.06;;;-142.21;86.15
5053;BME280;2545;50.892;5.740;2023-04-05T06:41:24;56123.84;;;-142.21;84.82
5053;BME280;2545;50.892;5.740;2023-04-05T06:43:49;56133.66;;;-142.21;85.03
5053;BME280;2545;50.892;5.740;2023-04-05T06:46:14;56133.66;;;-142.21;84.21
5053;BME280;2545;50.892;5.740;2023-04-05T06:48:40;56139.53;;;-142.21;83.46
5053;BME280;2545;50.892;5.740;2023-04-05T06:51:06;56137.59;;;-142.21;82.31
5053;BME280;2545;50.892;5.740;2023-04-05T06:53:31;56110.13;;;-142.21;82.09
5053;BME280;2545;50.892;5.740;2023-04-05T06:55:58;56165.03;;;-142.21;80.83
5053;BME280;2545;50.892;5.740;2023-04-05T06:58:24;56151.31;;;-142.21;79.84
5053;BME280;2545;50.892;5.740;2023-04-05T07:00:50;56127.78;;;-142.21;79.07
5053;BME280;2545;50.892;5.740;2023-04-05T07:03:17;56104.25;;;-142.21;78.20
5053;BME280;2545;50.892;5.740;2023-04-05T07:05:56;56094.44;;;-142.21;77.13
5053;BME280;2545;50.892;5.740;2023-04-05T07:08:23;56153.28;;;-142.21;76.95
5053;BME280;2545;50.892;5.740;2023-04-05T07:10:49;56139.53;;;-142.21;76.50
5053;BME280;2545;50.892;5.740;2023-04-05T07:13:16;56121.91;;;-142.21;75.45
5053;BME280;2545;50.892;5.740;2023-04-05T07:15:45;56116.00;;;-142.21;74.79
5053;BME280;2545;50.892;5.740;2023-04-05T07:18:11;56135.63;;;-142.21;74.75
5053;BME280;2545;50.892;5.740;2023-04-05T07:20:37;56135.63;;;-142.21;74.15
5053;BME280;2545;50.892;5.740;2023-04-05T07:23:03;56151.31;;;-142.21;73.43
5053;BME280;2545;50.892;5.740;2023-04-05T07:25:30;56127.78;;;-142.21;72.77
5053;BME280;2545;50.892;5.740;2023-04-05T07:27:56;56108.16;;;-142.21;72.33
5053;BME280;2545;50.892;5.740;2023-04-05T07:30:21;56129.75;;;-142.21;72.55
5053;BME280;2545;50.892;5.740;2023-04-05T07:32:46;56159.16;;;-142.21;71.87
5053;BME280;2545;50.892;5.740;2023-04-05T07:35:12;56114.06;;;-142.21;71.76
5053;BME280;2545;50.892;5.740;2023-04-05T07:37:37;56141.50;;;-142.21;71.17
5053;BME280;2545;50.892;5.740;2023-04-05T07:40:03;56127.78;;;-142.21;71.28
5053;BME280;2545;50.892;5.740;2023-04-05T07:42:30;56127.78;;;-142.21;71.44
5053;BME280;2545;50.892;5.740;2023-04-05T07:44:56;56131.69;;;-142.21;70.98
5053;BME280;2545;50.892;5.740;2023-04-05T07:47:21;56116.00;;;-142.21;69.52
5053;BME280;2545;50.892;5.740;2023-04-05T07:49:46;56121.91;;;-142.21;69.45
5053;BME280;2545;50.892;5.740;2023-04-05T07:52:12;56151.31;;;-142.21;69.43
5053;BME280;2545;50.892;5.740;2023-04-05T07:54:37;56129.75;;;-142.21;67.86
5053;BME280;2545;50.892;5.740;2023-04-05T07:57:04;56131.69;;;-142.21;67.28
5053;BME280;2545;50.892;5.740;2023-04-05T07:59:29;56159.16;;;-142.21;66.74
5053;BME280;2545;50.892;5.740;2023-04-05T08:01:55;56139.53;;;-142.21;65.79
5053;BME280;2545;50.892;5.740;2023-04-05T08:04:20;56143.47;;;-142.21;65.76
5053;BME280;2545;50.892;5.740;2023-04-05T08:06:46;56143.47;;;-142.21;64.74
5053;BME280;2545;50.892;5.740;2023-04-05T08:09:12;56145.44;;;-142.21;63.89
5053;BME280;2545;50.892;5.740;2023-04-05T08:11:37;56131.69;;;-142.21;63.42
5053;BME280;2545;50.892;5.740;2023-04-05T08:14:03;56129.75;;;-142.21;62.07
5053;BME280;2545;50.892;5.740;2023-04-05T08:16:28;56121.91;;;-142.21;61.26
5053;BME280;2545;50.892;5.740;2023-04-05T08:18:54;56127.78;;;-142.21;60.52
5053;BME280;2545;50.892;5.740;2023-04-05T08:21:19;56133.66;;;-142.21;59.97
5053;BME280;2545;50.892;5.740;2023-04-05T08:23:44;56121.91;;;-142.21;58.73
5053;BME280;2545;50.892;5.740;2023-04-05T08:26:10;56123.84;;;-142.21;57.50
5053;BME280;2545;50.892;5.740;2023-04-05T08:28:35;56141.50;;;-142.21;56.70
5053;BME280;2545;50.892;5.740;2023-04-05T08:31:00;56147.38;;;-142.21;56.64
5053;BME280;2545;50.892;5.740;2023-04-05T08:33:26;56141.50;;;-142.21;56.36
5053;BME280;2545;50.892;5.740;2023-04-05T08:35:55;56139.53;;;-142.21;55.95
5053;BME280;2545;50.892;5.740;2023-04-05T08:38:21;56116.00;;;-142.21;56.27
5053;BME280;2545;50.892;5.740;2023-04-05T08:40:46;56098.38;;;-142.21;55.49
5053;BME280;2545;50.892;5.740;2023-04-05T08:43:21;56157.19;;;-142.21;55.45
5053;BME280;2545;50.892;5.740;2023-04-05T08:45:51;56116.00;;;-142.21;53.74
5053;BME280;2545;50.892;5.740;2023-04-05T08:48:18;56123.84;;;-142.21;52.25
5053;BME280;2545;50.892;5.740;2023-04-05T08:50:51;56116.00;;;-142.21;50.98
5053;BME280;2545;50.892;5.740;2023-04-05T08:53:17;56127.78;;;-142.21;50.88
5053;BME280;2545;50.892;5.740;2023-04-05T08:55:42;56076.78;;;-142.21;50.77
5053;BME280;2545;50.892;5.740;2023-04-05T08:58:12;56094.44;;;-142.21;50.46
5053;BME280;2545;50.892;5.740;2023-04-05T09:00:39;56110.13;;;-142.21;49.02
5053;BME280;2545;50.892;5.740;2023-04-05T09:03:05;56123.84;;;-142.21;48.37
5053;BME280;2545;50.892;5.740;2023-04-05T09:05:31;56125.81;;;-142.21;47.71
5053;BME280;2545;50.892;5.740;2023-04-05T09:07:58;56108.16;;;-142.21;45.77
5053;BME280;2545;50.892;5.740;2023-04-05T09:10:24;56123.84;;;-142.21;45.38
5053;BME280;2545;50.892;5.740;2023-04-05T09:12:51;56145.44;;;-142.21;45.01
5053;BME280;2545;50.892;5.740;2023-04-05T09:15:17;56110.13;;;-142.21;44.25
5053;BME280;2545;50.892;5.740;2023-04-05T09:17:45;56121.91;;;-142.21;43.16
5053;BME280;2545;50.892;5.740;2023-04-05T09:20:11;56114.06;;;-142.21;41.90
5053;BME280;2545;50.892;5.740;2023-04-05T09:22:43;56112.09;;;-142.21;41.20
5053;BME280;2545;50.892;5.740;2023-04-05T09:25:10;56078.75;;;-142.21;40.89
5053;BME280;2545;50.892;5.740;2023-04-05T09:27:53;56135.63;;;-142.21;41.12
5053;BME280;2545;50.892;5.740;2023-04-05T09:30:23;56133.66;;;-142.21;40.65
5053;BME280;2545;50.892;5.740;2023-04-05T09:32:52;56096.41;;;-142.21;39.30
5053;BME280;2545;50.892;5.740;2023-04-05T09:35:20;56096.41;;;-142.21;40.35
5053;BME280;2545;50.892;5.740;2023-04-05T09:37:50;56092.47;;;-142.21;40.07
5053;BME280;2545;50.892;5.740;2023-04-05T09:40:19;56110.13;;;-142.21;39.48
5053;BME280;2545;50.892;5.740;2023-04-05T09:42:45;56119.94;;;-142.21;38.41
5053;BME280;2545;50.892;5.740;2023-04-05T09:45:11;56127.78;;;-142.21;39.09
5053;BME280;2545;50.892;5.740;2023-04-05T09:47:36;56100.31;;;-142.21;39.71
5053;BME280;2545;50.892;5.740;2023-04-05T09:52:41;56104.25;;;-142.21;38.64
5053;BME280;2545;50.892;5.740;2023-04-05T09:55:07;56084.63;;;-142.21;38.37
5053;BME280;2545;50.892;5.740;2023-04-05T09:57:35;56080.72;;;-142.21;39.02
5053;BME280;2545;50.892;5.740;2023-04-05T10:00:01;56078.75;;;-142.21;37.95
5053;BME280;2545;50.892;5.740;2023-04-05T10:02:35;56059.16;;;-142.21;36.93
5053;BME280;2545;50.892;5.740;2023-04-05T10:05:07;56106.22;;;-142.21;35.60
5053;BME280;2545;50.892;5.740;2023-04-05T10:07:36;56078.75;;;-142.21;34.93
5053;BME280;2545;50.892;5.740;2023-04-05T10:10:02;56092.47;;;-142.21;34.48
5053;BME280;2545;50.892;5.740;2023-04-05T10:12:27;56078.75;;;-142.21;34.02
5053;BME280;2545;50.892;5.740;2023-04-05T10:14:54;56112.09;;;-142.21;32.56
5053;BME280;2545;50.892;5.740;2023-04-05T10:17:23;56086.59;;;-142.21;32.11
5053;BME280;2545;50.892;5.740;2023-04-05T10:20:15;56067.00;;;-142.21;30.93
5053;BME280;2545;50.892;5.740;2023-04-05T10:27:47;56043.47;;;-142.21;29.03
5053;BME280;2545;50.892;5.740;2023-04-05T10:30:17;56045.41;;;-142.21;28.70
5053;BME280;2545;50.892;5.740;2023-04-05T10:35:49;56037.56;;;-142.21;26.96
5053;BME280;2545;50.892;5.740;2023-04-05T10:38:23;56016.00;;;-142.21;26.23
5053;BME280;2545;50.892;5.740;2023-04-05T10:40:52;56004.25;;;-142.21;25.39
5053;BME280;2545;50.892;5.740;2023-04-05T10:43:20;55978.75;;;-142.21;26.14
5053;BME280;2545;50.892;5.740;2023-04-05T10:45:48;55980.72;;;-142.21;25.99
5053;BME280;2545;50.892;5.740;2023-04-05T10:51:12;55976.78;;;-142.21;24.80
5053;BME280;2545;50.892;5.740;2023-04-05T10:53:37;55974.84;;;-142.21;24.89
5053;BME280;2545;50.892;5.740;2023-04-05T10:56:04;55982.69;;;-142.21;25.62
5053;BME280;2545;50.892;5.740;2023-04-05T10:58:31;56017.97;;;-142.21;26.21
5053;BME280;2545;50.892;5.740;2023-04-05T11:00:57;55986.59;;;-142.21;26.37
5053;BME280;2545;50.892;5.740;2023-04-05T11:08:57;55968.94;;;-142.21;24.88
5053;BME280;2545;50.892;5.740;2023-04-05T11:11:23;55992.47;;;-142.21;23.65
5053;BME280;2545;50.892;5.740;2023-04-05T11:13:54;55968.94;;;-142.21;24.92
5053;BME280;2545;50.892;5.740;2023-04-05T11:16:21;56004.25;;;-142.21;24.38
5053;BME280;2545;50.892;5.740;2023-04-05T11:18:51;55980.72;;;-142.21;23.87
5053;BME280;2545;50.892;5.740;2023-04-05T11:21:24;55980.72;;;-142.21;23.85
5053;BME280;2545;50.892;5.740;2023-04-05T11:24:05;56023.84;;;-142.21;23.72
5053;BME280;2545;50.892;5.740;2023-04-05T11:26:51;55988.56;;;-142.21;24.68
5053;BME280;2545;50.892;5.740;2023-04-05T11:29:18;55951.31;;;-142.21;22.48
5053;BME280;2545;50.892;5.740;2023-04-05T11:32:00;55978.75;;;-142.21;22.99
5053;BME280;2545;50.892;5.740;2023-04-05T11:34:34;55990.53;;;-142.21;24.03
5053;BME280;2545;50.892;5.740;2023-04-05T11:37:00;56016.00;;;-142.21;24.00
5053;BME280;2545;50.892;5.740;2023-04-05T11:39:26;55992.47;;;-142.21;24.95
5053;BME280;2545;50.892;5.740;2023-04-05T11:42:08;55949.34;;;-142.21;24.79
5053;BME280;2545;50.892;5.740;2023-04-05T11:44:42;55980.72;;;-142.21;24.48
5053;BME280;2545;50.892;5.740;2023-04-05T11:47:08;55984.63;;;-142.21;23.26
5053;BME280;2545;50.892;5.740;2023-04-05T11:49:35;55982.69;;;-142.21;24.64
5053;BME280;2545;50.892;5.740;2023-04-05T11:52:17;55943.47;;;-142.21;24.21
5053;BME280;2545;50.892;5.740;2023-04-05T11:54:44;55967.00;;;-142.21;23.70
5053;BME280;2545;50.892;5.740;2023-04-05T11:57:28;55980.72;;;-142.21;23.40
5053;BME280;2545;50.892;5.740;2023-04-05T11:59:53;55963.06;;;-142.21;21.87
5053;BME280;2545;50.892;5.740;2023-04-05T12:02:20;55957.19;;;-142.21;22.71
5053;BME280;2545;50.892;5.740;2023-04-05T12:04:55;55953.25;;;-142.21;22.69
5053;BME280;2545;50.892;5.740;2023-04-05T12:07:24;55992.47;;;-142.21;23.19
5053;BME280;2545;50.892;5.740;2023-04-05T12:10:00;55949.34;;;-142.21;22.49
5053;BME280;2545;50.892;5.740;2023-04-05T12:12:27;55947.38;;;-142.21;22.12
5053;BME280;2545;50.892;5.740;2023-04-05T12:14:59;55927.78;;;-142.21;21.62
5053;BME280;2545;50.892;5.740;2023-04-05T12:17:48;55988.56;;;-142.21;22.93
5053;BME280;2545;50.892;5.740;2023-04-05T12:20:15;55937.56;;;-142.21;22.18
5053;BME280;2545;50.892;5.740;2023-04-05T12:22:42;55976.78;;;-142.21;22.32
5053;BME280;2545;50.892;5.740;2023-04-05T12:25:08;55939.53;;;-142.21;22.21
5053;BME280;2545;50.892;5.740;2023-04-05T12:27:34;55965.03;;;-142.21;22.38
5053;BME280;2545;50.892;5.740;2023-04-05T12:35:21;55933.66;;;-142.21;21.74
5053;BME280;2545;50.892;5.740;2023-04-05T12:37:51;55890.53;;;-142.21;22.04
5053;BME280;2545;50.892;5.740;2023-04-05T12:40:23;55912.09;;;-142.21;21.07
5053;BME280;2545;50.892;5.740;2023-04-05T12:42:49;55927.78;;;-142.21;21.14
5053;BME280;2545;50.892;5.740;2023-04-05T12:45:14;55900.31;;;-142.21;22.21
5053;BME280;2545;50.892;5.740;2023-04-05T12:47:57;55835.63;;;-142.21;20.61
5053;BME280;2545;50.892;5.740;2023-04-05T12:50:30;55904.25;;;-142.21;20.83
5053;BME280;2545;50.892;5.740;2023-04-05T12:55:21;55874.84;;;-142.21;20.91
5053;BME280;2545;50.892;5.740;2023-04-05T12:57:50;55925.81;;;-142.21;21.00
5053;BME280;2545;50.892;5.740;2023-04-05T13:00:16;55874.84;;;-142.21;20.93
5053;BME280;2545;50.892;5.740;2023-04-05T13:02:42;55874.84;;;-142.21;21.07
5053;BME280;2545;50.892;5.740;2023-04-05T13:05:07;55916.00;;;-142.21;20.85
5053;BME280;2545;50.892;5.740;2023-04-05T13:07:33;55894.44;;;-142.21;21.20
5053;BME280;2545;50.892;5.740;2023-04-05T13:09:58;55857.19;;;-142.21;21.07
5053;BME280;2545;50.892;5.740;2023-04-05T13:12:24;55845.44;;;-142.21;20.53
5053;BME280;2545;50.892;5.740;2023-04-05T13:14:49;55853.28;;;-142.21;19.68
5053;BME280;2545;50.892;5.740;2023-04-05T13:17:15;55845.44;;;-142.21;20.12
5053;BME280;2545;50.892;5.740;2023-04-05T13:19:40;55812.09;;;-142.21;19.81
5053;BME280;2545;50.892;5.740;2023-04-05T13:22:05;55867.00;;;-142.21;19.81
5053;BME280;2545;50.892;5.740;2023-04-05T13:24:31;55900.31;;;-142.21;20.09
5053;BME280;2545;50.892;5.740;2023-04-05T13:26:56;55910.13;;;-142.21;20.44
5053;BME280;2545;50.892;5.740;2023-04-05T13:29:21;55945.41;;;-142.21;21.10
5053;BME280;2545;50.892;5.740;2023-04-05T13:31:47;55955.22;;;-142.21;21.00
5053;BME280;2545;50.892;5.740;2023-04-05T13:34:12;55910.13;;;-142.21;20.98